Time;durP1;ratioP1;P1;durP2;ratioP2;P2;SDS_P1;SDS_P2;PMS_P1;PMS_P2;Temp;Humidity;BMP_temperature;BMP_pressure;BME280_temperature;BME280_humidity;BME280_pressure;Samples;Min_cycle;Max_cycle;Signal;HPM_P1;HPM_P2
2020/12/23 00:02:10;;;;;;;48.08;31.52;;;;;;;;;;6251421;28;20132;-72
2020/12/23 00:05:15;;;;;;;43.88;29.80;;;;;;;;;;6252146;28;20047;-72
2020/12/23 00:08:16;;;;;;;47.95;31.30;;;;;;;;;;6255904;28;20044;-73
2020/12/23 00:11:18;;;;;;;48.65;31.95;;;;;;;;;;6254051;28;20507;-74
2020/12/23 00:14:19;;;;;;;50.58;32.58;;;;;;;;;;6256288;28;20051;-72
2020/12/23 00:17:20;;;;;;;53.10;35.17;;;;;;;;;;6256506;28;20058;-77
2020/12/23 00:20:22;;;;;;;55.72;38.05;;;;;;;;;;6252586;28;20037;-75
2020/12/23 00:23:23;;;;;;;92.43;51.08;;;;;;;;;;6258219;28;20508;-75
2020/12/23 00:26:24;;;;;;;72.53;44.40;;;;;;;;;;6258975;28;20041;-74
2020/12/23 00:29:25;;;;;;;60.72;38.58;;;;;;;;;;6258650;28;20122;-75
2020/12/23 00:32:28;;;;;;;67.22;43.10;;;;;;;;;;6256099;28;20040;-75
2020/12/23 00:35:30;;;;;;;70.47;43.38;;;;;;;;;;6260982;28;20053;-73
2020/12/23 00:38:31;;;;;;;47.95;33.55;;;;;;;;;;6263568;28;20052;-73
2020/12/23 00:41:32;;;;;;;49.80;33.35;;;;;;;;;;6253740;28;20402;-74
2020/12/23 00:44:34;;;;;;;49.38;31.92;;;;;;;;;;6263217;28;20499;-72
2020/12/23 00:47:35;;;;;;;58.15;34.60;;;;;;;;;;6265709;28;20072;-72
2020/12/23 00:50:37;;;;;;;55.08;33.28;;;;;;;;;;6255146;28;20049;-72
2020/12/23 00:53:38;;;;;;;48.58;32.53;;;;;;;;;;6261118;28;20053;-72
2020/12/23 00:56:39;;;;;;;52.30;34.08;;;;;;;;;;6251703;28;20144;-74
2020/12/23 00:59:40;;;;;;;51.17;32.45;;;;;;;;;;6249491;28;20078;-72
2020/12/23 01:02:41;;;;;;;50.03;34.22;;;;;;;;;;6256755;28;20469;-73
2020/12/23 01:05:43;;;;;;;53.20;33.15;;;;;;;;;;6257640;28;20053;-73
2020/12/23 01:08:45;;;;;;;51.65;32.78;;;;;;;;;;6257804;28;20106;-73
2020/12/23 01:11:47;;;;;;;51.47;33.83;;;;;;;;;;6260625;28;20051;-72
2020/12/23 01:14:48;;;;;;;53.95;34.40;;;;;;;;;;6254567;28;20045;-74
2020/12/23 01:17:49;;;;;;;53.60;34.17;;;;;;;;;;6256783;28;20045;-72
2020/12/23 01:20:51;;;;;;;61.80;36.08;;;;;;;;;;6257663;28;20627;-73
2020/12/23 01:23:52;;;;;;;55.30;34.15;;;;;;;;;;6256155;28;20082;-73
2020/12/23 01:26:53;;;;;;;51.65;35.70;;;;;;;;;;6260546;28;20102;-72
2020/12/23 01:29:54;;;;;;;53.25;34.72;;;;;;;;;;6256575;28;20057;-72
2020/12/23 01:32:55;;;;;;;53.92;35.30;;;;;;;;;;6255091;28;20057;-74
2020/12/23 01:35:57;;;;;;;58.95;36.53;;;;;;;;;;6261805;28;20063;-72
2020/12/23 01:38:58;;;;;;;55.92;34.42;;;;;;;;;;6259608;28;20449;-72
2020/12/23 01:41:59;;;;;;;52.00;34.17;;;;;;;;;;6255239;28;20082;-70
2020/12/23 01:45:00;;;;;;;55.40;36.08;;;;;;;;;;6251490;28;20052;-73
2020/12/23 01:48:10;;;;;;;58.47;35.33;;;;;;;;;;6255223;28;20053;-69
2020/12/23 01:51:12;;;;;;;54.30;35.72;;;;;;;;;;6253736;28;20172;-73
2020/12/23 01:54:14;;;;;;;52.80;33.58;;;;;;;;;;6258680;28;20406;-72
2020/12/23 01:57:15;;;;;;;57.00;35.97;;;;;;;;;;6265044;28;20053;-72
2020/12/23 02:00:16;;;;;;;59.55;36.42;;;;;;;;;;6262839;28;20135;-74
2020/12/23 02:03:20;;;;;;;60.13;35.53;;;;;;;;;;6260438;28;20059;-72
2020/12/23 02:06:22;;;;;;;53.63;35.22;;;;;;;;;;6248708;28;20041;-73
2020/12/23 02:09:24;;;;;;;59.70;36.67;;;;;;;;;;6243286;28;21990;-73
2020/12/23 02:12:25;;;;;;;54.63;35.92;;;;;;;;;;6258912;28;20128;-73
2020/12/23 02:15:27;;;;;;;54.13;36.17;;;;;;;;;;6248272;28;20534;-73
2020/12/23 02:18:28;;;;;;;59.05;35.85;;;;;;;;;;6259162;28;20055;-74
2020/12/23 02:21:30;;;;;;;54.80;36.13;;;;;;;;;;6261623;28;20080;-72
2020/12/23 02:24:32;;;;;;;52.60;36.17;;;;;;;;;;6263972;28;20053;-72
2020/12/23 02:27:33;;;;;;;55.22;34.13;;;;;;;;;;6257104;28;20057;-72
2020/12/23 02:30:34;;;;;;;53.35;34.55;;;;;;;;;;6268890;28;20044;-73
2020/12/23 02:33:35;;;;;;;57.90;35.20;;;;;;;;;;6268915;28;20098;-73
2020/12/23 02:36:36;;;;;;;53.10;34.08;;;;;;;;;;6267881;28;20844;-73
2020/12/23 02:39:40;;;;;;;54.75;35.58;;;;;;;;;;6257021;28;20045;-73
2020/12/23 02:42:41;;;;;;;56.13;36.47;;;;;;;;;;6261037;28;20167;-73
2020/12/23 02:45:42;;;;;;;58.80;36.53;;;;;;;;;;6260717;28;20037;-72
2020/12/23 02:48:43;;;;;;;56.85;35.92;;;;;;;;;;6267988;28;20417;-73
2020/12/23 02:51:44;;;;;;;55.28;35.75;;;;;;;;;;6265315;28;20090;-72
2020/12/23 02:54:46;;;;;;;58.05;36.88;;;;;;;;;;6264555;28;20044;-73
2020/12/23 02:57:47;;;;;;;55.08;36.33;;;;;;;;;;6258668;28;20045;-72
2020/12/23 03:00:48;;;;;;;57.42;37.33;;;;;;;;;;6262033;28;20061;-72
2020/12/23 03:03:49;;;;;;;58.00;38.10;;;;;;;;;;6261638;28;20053;-73
2020/12/23 03:06:50;;;;;;;61.85;39.03;;;;;;;;;;6258957;28;20381;-73
2020/12/23 03:09:52;;;;;;;61.47;38.92;;;;;;;;;;6257674;28;20067;-75
2020/12/23 03:12:53;;;;;;;62.25;39.50;;;;;;;;;;6261869;28;20063;-74
2020/12/23 03:15:54;;;;;;;61.00;37.78;;;;;;;;;;6254916;28;20040;-74
2020/12/23 03:18:55;;;;;;;63.22;38.55;;;;;;;;;;6262547;28;20049;-74
2020/12/23 03:21:56;;;;;;;61.30;37.95;;;;;;;;;;6256486;28;20070;-74
2020/12/23 03:24:58;;;;;;;58.95;37.53;;;;;;;;;;6263738;28;20041;-74
2020/12/23 03:27:59;;;;;;;60.22;38.28;;;;;;;;;;6257765;28;20083;-74
2020/12/23 03:31:00;;;;;;;58.67;37.50;;;;;;;;;;6259734;28;20512;-75
2020/12/23 03:34:01;;;;;;;59.20;37.78;;;;;;;;;;6261515;28;20045;-74
2020/12/23 03:37:02;;;;;;;57.97;36.65;;;;;;;;;;6256310;28;20131;-74
2020/12/23 03:40:04;;;;;;;58.53;36.35;;;;;;;;;;6257560;28;20049;-73
2020/12/23 03:43:05;;;;;;;60.58;37.25;;;;;;;;;;6255775;28;20145;-74
2020/12/23 03:46:06;;;;;;;58.00;35.15;;;;;;;;;;6260910;28;20040;-74
2020/12/23 03:49:07;;;;;;;53.80;34.00;;;;;;;;;;6252705;28;20110;-74
2020/12/23 03:52:08;;;;;;;53.33;34.22;;;;;;;;;;6259483;28;20124;-74
2020/12/23 03:55:10;;;;;;;55.00;34.67;;;;;;;;;;6256187;28;20107;-75
2020/12/23 03:58:11;;;;;;;57.55;36.83;;;;;;;;;;6259542;28;20059;-75
2020/12/23 04:01:12;;;;;;;60.67;37.58;;;;;;;;;;6265730;28;20051;-74
2020/12/23 04:04:13;;;;;;;58.55;38.33;;;;;;;;;;6257685;28;20048;-74
2020/12/23 04:07:14;;;;;;;60.10;37.55;;;;;;;;;;6257226;28;20487;-73
2020/12/23 04:10:16;;;;;;;58.25;37.88;;;;;;;;;;6254392;28;20040;-73
2020/12/23 04:13:17;;;;;;;60.83;37.05;;;;;;;;;;6262031;28;20049;-73
2020/12/23 04:16:18;;;;;;;62.10;38.88;;;;;;;;;;6249170;28;20051;-73
2020/12/23 04:19:19;;;;;;;57.20;36.35;;;;;;;;;;6255445;28;20040;-73
2020/12/23 04:22:20;;;;;;;58.28;36.67;;;;;;;;;;6258161;28;20124;-73
2020/12/23 04:25:22;;;;;;;52.40;33.08;;;;;;;;;;6256619;28;20405;-73
2020/12/23 04:28:23;;;;;;;52.92;35.40;;;;;;;;;;6260731;28;20378;-73
2020/12/23 04:31:24;;;;;;;57.50;35.55;;;;;;;;;;6257506;28;20060;-74
2020/12/23 04:34:25;;;;;;;57.53;36.10;;;;;;;;;;6268441;28;20049;-73
2020/12/23 04:37:26;;;;;;;53.58;35.97;;;;;;;;;;6260245;28;20044;-72
2020/12/23 04:40:28;;;;;;;62.03;37.03;;;;;;;;;;6266272;28;20057;-73
2020/12/23 04:43:30;;;;;;;49.78;30.48;;;;;;;;;;6251426;28;20063;-73
2020/12/23 04:46:34;;;;;;;41.83;25.33;;;;;;;;;;6253530;28;20050;-73
2020/12/23 04:49:37;;;;;;;38.10;23.67;;;;;;;;;;6259139;28;20067;-72
2020/12/23 04:52:38;;;;;;;39.42;25.98;;;;;;;;;;6253674;28;20049;-73
2020/12/23 04:55:41;;;;;;;39.08;26.20;;;;;;;;;;6251830;28;20063;-73
2020/12/23 04:58:42;;;;;;;42.08;25.25;;;;;;;;;;6258202;28;20056;-73
2020/12/23 05:01:43;;;;;;;38.17;23.73;;;;;;;;;;6259184;28;20051;-73
2020/12/23 05:04:44;;;;;;;39.22;24.70;;;;;;;;;;6264978;28;20055;-73
2020/12/23 05:07:48;;;;;;;35.53;23.98;;;;;;;;;;6263999;28;20048;-73
2020/12/23 05:10:50;;;;;;;41.47;26.98;;;;;;;;;;6257919;28;20140;-73
2020/12/23 05:13:53;;;;;;;44.85;27.45;;;;;;;;;;6248564;28;20063;-73
2020/12/23 05:16:54;;;;;;;42.33;27.33;;;;;;;;;;6249401;28;22823;-73
2020/12/23 05:19:55;;;;;;;40.58;27.25;;;;;;;;;;6250493;28;21129;-73
2020/12/23 05:22:57;;;;;;;47.17;29.42;;;;;;;;;;6252719;28;20054;-73
2020/12/23 05:26:05;;;;;;;51.20;33.17;;;;;;;;;;6226622;28;20047;-73
2020/12/23 05:29:06;;;;;;;49.08;31.08;;;;;;;;;;6228629;28;20184;-73
2020/12/23 05:32:10;;;;;;;50.85;32.22;;;;;;;;;;6231278;28;20073;-73
2020/12/23 05:35:11;;;;;;;53.00;32.25;;;;;;;;;;6224034;28;20157;-73
2020/12/23 05:38:12;;;;;;;52.08;32.70;;;;;;;;;;6234368;28;20540;-73
2020/12/23 05:41:15;;;;;;;48.50;31.92;;;;;;;;;;6229969;28;20046;-73
2020/12/23 05:44:17;;;;;;;48.55;31.50;;;;;;;;;;6230097;28;20200;-73
2020/12/23 05:47:22;;;;;;;46.17;30.27;;;;;;;;;;6232825;28;20394;-73
2020/12/23 05:50:24;;;;;;;45.95;31.33;;;;;;;;;;6220518;28;20062;-73
2020/12/23 05:53:27;;;;;;;51.17;32.88;;;;;;;;;;6222870;28;20823;-73
2020/12/23 05:56:35;;;;;;;47.08;32.78;;;;;;;;;;6228660;28;20064;-74
2020/12/23 05:59:36;;;;;;;54.97;33.22;;;;;;;;;;6220405;28;20050;-73
2020/12/23 06:02:48;;;;;;;52.13;34.13;;;;;;;;;;6238429;28;20050;-73
2020/12/23 06:05:58;;;;;;;52.80;34.58;;;;;;;;;;6226576;28;20061;-73
2020/12/23 06:09:01;;;;;;;52.25;34.67;;;;;;;;;;6236824;28;20049;-73
2020/12/23 06:12:15;;;;;;;60.72;38.33;;;;;;;;;;6240848;28;20045;-74
2020/12/23 06:15:17;;;;;;;63.53;39.67;;;;;;;;;;6249976;28;20048;-73
2020/12/23 06:18:19;;;;;;;63.58;39.05;;;;;;;;;;6244421;28;20129;-73
2020/12/23 06:21:21;;;;;;;68.55;41.53;;;;;;;;;;6241887;28;20401;-73
2020/12/23 06:24:23;;;;;;;67.53;41.50;;;;;;;;;;6239094;28;20056;-74
2020/12/23 06:27:25;;;;;;;68.53;41.60;;;;;;;;;;6249934;28;20145;-74
2020/12/23 06:30:28;;;;;;;63.33;40.55;;;;;;;;;;6256012;28;20052;-73
2020/12/23 06:33:29;;;;;;;63.25;41.33;;;;;;;;;;6254921;28;20688;-73
2020/12/23 06:36:31;;;;;;;66.68;40.42;;;;;;;;;;6253050;28;20497;-73
2020/12/23 06:39:33;;;;;;;62.55;39.40;;;;;;;;;;6255807;28;20587;-72
2020/12/23 06:42:36;;;;;;;67.50;40.33;;;;;;;;;;6256318;28;20041;-72
2020/12/23 06:45:53;;;;;;;67.82;41.63;;;;;;;;;;6246909;28;20125;-73
2020/12/23 06:49:15;;;;;;;66.85;41.20;;;;;;;;;;6254613;28;20057;-72
2020/12/23 06:52:33;;;;;;;66.38;41.67;;;;;;;;;;6255839;28;20072;-72
2020/12/23 06:55:44;;;;;;;67.32;40.13;;;;;;;;;;6260231;28;20140;-71
2020/12/23 06:58:46;;;;;;;65.47;41.25;;;;;;;;;;6252756;28;20053;-72
2020/12/23 07:01:47;;;;;;;70.55;42.58;;;;;;;;;;6258125;28;20045;-72
2020/12/23 07:04:49;;;;;;;70.43;42.67;;;;;;;;;;6258140;28;20053;-72
2020/12/23 07:07:51;;;;;;;67.05;41.78;;;;;;;;;;6262052;28;20123;-72
2020/12/23 07:10:52;;;;;;;68.47;42.50;;;;;;;;;;6268188;28;20045;-72
2020/12/23 07:13:58;;;;;;;72.07;44.78;;;;;;;;;;6270421;28;20634;-72
2020/12/23 07:17:02;;;;;;;69.95;42.20;;;;;;;;;;6261351;28;20044;-74
2020/12/23 07:20:05;;;;;;;69.70;42.58;;;;;;;;;;6266536;28;20041;-73
2020/12/23 07:23:07;;;;;;;71.90;42.03;;;;;;;;;;6265300;28;20749;-72
2020/12/23 07:26:10;;;;;;;64.40;42.60;;;;;;;;;;6267567;28;20399;-72
2020/12/23 07:29:14;;;;;;;71.20;41.72;;;;;;;;;;6254025;28;20401;-71
2020/12/23 07:32:19;;;;;;;73.40;45.25;;;;;;;;;;6249142;28;20068;-72
2020/12/23 07:35:20;;;;;;;;;;;;;;;;;;6257780;28;20048;-72
2020/12/23 07:38:22;;;;;;;71.15;42.72;;;;;;;;;;6265621;28;19921;-72
2020/12/23 07:41:23;;;;;;;72.32;42.75;;;;;;;;;;6263153;28;20319;-72
2020/12/23 07:44:26;;;;;;;70.15;43.00;;;;;;;;;;6257212;28;20060;-71
2020/12/23 07:47:27;;;;;;;66.68;41.80;;;;;;;;;;6262313;28;20556;-72
2020/12/23 07:50:30;;;;;;;62.42;41.60;;;;;;;;;;6258985;28;20106;-72
2020/12/23 07:53:31;;;;;;;65.90;41.45;;;;;;;;;;6257160;28;20052;-71
2020/12/23 07:56:38;;;;;;;72.57;43.65;;;;;;;;;;6266897;28;20619;-71
2020/12/23 07:59:40;;;;;;;69.28;42.53;;;;;;;;;;6264461;28;20071;-73
2020/12/23 08:02:41;;;;;;;67.72;43.97;;;;;;;;;;6256321;28;20045;-72
2020/12/23 08:05:42;;;;;;;70.28;43.38;;;;;;;;;;6263583;28;20122;-72
2020/12/23 08:08:44;;;;;;;70.72;43.92;;;;;;;;;;6256442;28;20095;-73
2020/12/23 08:11:45;;;;;;;74.13;45.50;;;;;;;;;;6253125;28;20111;-73
2020/12/23 08:14:47;;;;;;;67.93;43.45;;;;;;;;;;6258826;28;20036;-73
2020/12/23 08:17:49;;;;;;;71.90;46.55;;;;;;;;;;6257583;28;20049;-72
2020/12/23 08:20:50;;;;;;;71.50;44.78;;;;;;;;;;6254973;28;20054;-72
2020/12/23 08:23:53;;;;;;;72.13;45.45;;;;;;;;;;6261188;28;20049;-73
2020/12/23 08:26:54;;;;;;;71.47;45.07;;;;;;;;;;6256238;28;20041;-72
2020/12/23 08:29:57;;;;;;;69.53;43.65;;;;;;;;;;6254747;28;20465;-72
2020/12/23 08:33:02;;;;;;;71.65;42.03;;;;;;;;;;6265278;28;20480;-70
2020/12/23 08:36:04;;;;;;;63.45;40.95;;;;;;;;;;6253679;28;20048;-70
2020/12/23 08:39:05;;;;;;;65.05;41.28;;;;;;;;;;6251669;28;20049;-71
2020/12/23 08:42:07;;;;;;;63.53;41.03;;;;;;;;;;6248559;28;20056;-72
2020/12/23 08:45:10;;;;;;;71.28;41.47;;;;;;;;;;6250643;28;20414;-72
2020/12/23 08:48:11;;;;;;;67.25;41.30;;;;;;;;;;6257966;28;20044;-73
2020/12/23 08:51:12;;;;;;;63.50;40.70;;;;;;;;;;6265943;28;20056;-73
2020/12/23 08:54:14;;;;;;;62.90;39.45;;;;;;;;;;6251076;28;20041;-73
2020/12/23 08:57:16;;;;;;;61.90;39.58;;;;;;;;;;6260303;28;20049;-72
2020/12/23 09:00:19;;;;;;;60.58;39.38;;;;;;;;;;6260211;28;20041;-73
2020/12/23 09:03:24;;;;;;;64.15;39.92;;;;;;;;;;6257270;28;20501;-72
2020/12/23 09:06:25;;;;;;;63.88;39.10;;;;;;;;;;6260436;28;20087;-72
2020/12/23 09:09:26;;;;;;;65.72;39.83;;;;;;;;;;6261082;28;20045;-73
2020/12/23 09:12:27;;;;;;;65.55;41.25;;;;;;;;;;6262725;28;20053;-74
2020/12/23 09:15:31;;;;;;;61.92;40.38;;;;;;;;;;6254004;28;20063;-74
2020/12/23 09:18:32;;;;;;;69.75;41.15;;;;;;;;;;6259327;28;20628;-72
2020/12/23 09:21:33;;;;;;;69.75;39.42;;;;;;;;;;6261361;28;20458;-74
2020/12/23 09:24:34;;;;;;;61.67;39.22;;;;;;;;;;6264036;28;20528;-75
2020/12/23 09:27:35;;;;;;;62.78;40.42;;;;;;;;;;6254817;28;20110;-74
2020/12/23 09:30:38;;;;;;;63.35;39.97;;;;;;;;;;6256405;28;20234;-73
2020/12/23 09:33:41;;;;;;;67.33;40.83;;;;;;;;;;6254839;28;20077;-73
2020/12/23 09:36:42;;;;;;;65.72;40.35;;;;;;;;;;6256495;28;20051;-72
2020/12/23 09:39:43;;;;;;;64.55;40.85;;;;;;;;;;6262584;28;20135;-73
2020/12/23 09:42:44;;;;;;;65.53;40.67;;;;;;;;;;6265844;28;20037;-73
2020/12/23 09:45:46;;;;;;;64.50;40.90;;;;;;;;;;6253986;28;20037;-73
2020/12/23 09:48:47;;;;;;;68.13;40.67;;;;;;;;;;6260600;28;20067;-73
2020/12/23 09:51:49;;;;;;;63.38;41.28;;;;;;;;;;6261678;28;20156;-72
2020/12/23 09:54:50;;;;;;;65.55;41.65;;;;;;;;;;6259637;28;20061;-73
2020/12/23 09:57:51;;;;;;;67.15;43.40;;;;;;;;;;6253832;28;20048;-73
2020/12/23 10:00:53;;;;;;;64.22;41.35;;;;;;;;;;6256666;28;21613;-73
2020/12/23 10:03:54;;;;;;;64.95;42.45;;;;;;;;;;6254962;28;20509;-73
2020/12/23 10:06:55;;;;;;;64.85;42.63;;;;;;;;;;6251743;28;20415;-73
2020/12/23 10:09:56;;;;;;;69.35;44.08;;;;;;;;;;6253452;28;20070;-72
2020/12/23 10:12:57;;;;;;;68.03;41.15;;;;;;;;;;6252313;28;20075;-72
2020/12/23 10:15:59;;;;;;;67.80;43.30;;;;;;;;;;6255119;28;20705;-72
2020/12/23 10:19:00;;;;;;;68.70;43.70;;;;;;;;;;6259101;28;20654;-72
2020/12/23 10:22:01;;;;;;;66.43;43.90;;;;;;;;;;6262402;28;20141;-74
2020/12/23 10:25:03;;;;;;;68.78;44.28;;;;;;;;;;6272781;28;20126;-74
2020/12/23 10:28:04;;;;;;;65.25;43.42;;;;;;;;;;6273721;28;20408;-74
2020/12/23 10:31:07;;;;;;;71.15;44.45;;;;;;;;;;6270717;28;20056;-74
2020/12/23 10:34:08;;;;;;;70.25;44.78;;;;;;;;;;6261078;28;20481;-74
2020/12/23 10:37:09;;;;;;;62.58;44.42;;;;;;;;;;6258376;28;20053;-74
2020/12/23 10:40:10;;;;;;;65.15;44.15;;;;;;;;;;6264272;28;20128;-74
2020/12/23 10:43:11;;;;;;;62.35;42.60;;;;;;;;;;6266973;28;20377;-73
2020/12/23 10:46:14;;;;;;;67.10;42.83;;;;;;;;;;6257111;28;20049;-74
2020/12/23 10:49:15;;;;;;;66.22;43.40;;;;;;;;;;6253982;28;20061;-73
2020/12/23 10:52:16;;;;;;;66.45;44.35;;;;;;;;;;6263733;28;20056;-74
2020/12/23 10:55:17;;;;;;;63.97;42.05;;;;;;;;;;6268705;28;20077;-73
2020/12/23 10:58:18;;;;;;;63.45;43.30;;;;;;;;;;6267175;28;20396;-73
2020/12/23 11:01:21;;;;;;;65.88;43.78;;;;;;;;;;6262771;28;20051;-74
2020/12/23 11:04:22;;;;;;;71.07;43.72;;;;;;;;;;6261212;28;20041;-73
2020/12/23 11:07:23;;;;;;;64.65;42.78;;;;;;;;;;6253995;28;20652;-74
2020/12/23 11:10:24;;;;;;;61.47;43.72;;;;;;;;;;6252550;28;20076;-73
2020/12/23 11:13:25;;;;;;;66.68;44.53;;;;;;;;;;6257438;28;20191;-73
2020/12/23 11:16:27;;;;;;;68.43;45.03;;;;;;;;;;6253115;28;20052;-73
2020/12/23 11:19:28;;;;;;;67.72;44.28;;;;;;;;;;6252583;28;20049;-73
2020/12/23 11:22:29;;;;;;;64.13;45.13;;;;;;;;;;6259506;28;20049;-73
2020/12/23 11:25:31;;;;;;;62.03;43.85;;;;;;;;;;6262956;28;20045;-72
2020/12/23 11:28:32;;;;;;;63.83;42.55;;;;;;;;;;6259568;28;20178;-73
2020/12/23 11:31:34;;;;;;;62.13;43.03;;;;;;;;;;6258496;28;20039;-73
2020/12/23 11:34:36;;;;;;;66.65;44.45;;;;;;;;;;6259204;28;20143;-73
2020/12/23 11:37:37;;;;;;;64.53;42.83;;;;;;;;;;6258122;28;20079;-73
2020/12/23 11:40:38;;;;;;;65.47;44.03;;;;;;;;;;6257932;28;20128;-73
2020/12/23 11:43:39;;;;;;;66.00;44.30;;;;;;;;;;6254388;28;20126;-74
2020/12/23 11:46:41;;;;;;;63.15;42.65;;;;;;;;;;6269281;28;20142;-73
2020/12/23 11:49:42;;;;;;;67.82;43.55;;;;;;;;;;6262517;28;20049;-73
2020/12/23 11:52:43;;;;;;;64.13;42.08;;;;;;;;;;6251090;28;20090;-73
2020/12/23 11:55:44;;;;;;;68.78;43.70;;;;;;;;;;6261350;28;20053;-72
2020/12/23 11:58:45;;;;;;;68.00;44.70;;;;;;;;;;6259774;28;20055;-73
2020/12/23 12:01:47;;;;;;;64.07;43.25;;;;;;;;;;6261931;28;20045;-73
2020/12/23 12:04:48;;;;;;;72.00;42.65;;;;;;;;;;6257993;28;20057;-72
2020/12/23 12:07:49;;;;;;;63.95;42.78;;;;;;;;;;6247875;28;20056;-74
2020/12/23 12:10:50;;;;;;;62.58;42.30;;;;;;;;;;6254123;28;20048;-73
2020/12/23 12:13:51;;;;;;;63.45;42.05;;;;;;;;;;6252591;28;20082;-73
2020/12/23 12:16:53;;;;;;;62.67;42.33;;;;;;;;;;6262470;28;20115;-72
2020/12/23 12:19:55;;;;;;;63.80;42.65;;;;;;;;;;6257226;28;20136;-72
2020/12/23 12:22:56;;;;;;;62.97;41.13;;;;;;;;;;6256063;28;20053;-73
2020/12/23 12:25:57;;;;;;;68.72;42.03;;;;;;;;;;6236559;28;20064;-73
2020/12/23 12:28:59;;;;;;;65.15;41.67;;;;;;;;;;6236939;28;20049;-74
2020/12/23 12:32:01;;;;;;;64.30;42.90;;;;;;;;;;6233172;28;20152;-73
2020/12/23 12:35:02;;;;;;;67.03;42.92;;;;;;;;;;6238710;28;20041;-73
2020/12/23 12:38:04;;;;;;;63.75;41.38;;;;;;;;;;6234585;28;20047;-73
2020/12/23 12:41:05;;;;;;;69.38;43.10;;;;;;;;;;6226360;28;20050;-73
2020/12/23 12:44:06;;;;;;;67.80;43.83;;;;;;;;;;6234327;28;20058;-74
2020/12/23 12:47:08;;;;;;;70.65;44.13;;;;;;;;;;6234052;28;20070;-74
2020/12/23 12:50:09;;;;;;;70.18;45.38;;;;;;;;;;6226055;28;20053;-73
2020/12/23 12:53:10;;;;;;;66.15;43.08;;;;;;;;;;6237710;28;20480;-74
2020/12/23 12:56:11;;;;;;;66.25;44.13;;;;;;;;;;6222812;28;20183;-73
2020/12/23 12:59:12;;;;;;;73.25;43.08;;;;;;;;;;6223549;28;20052;-74
2020/12/23 13:02:14;;;;;;;69.18;43.13;;;;;;;;;;6230020;28;20148;-74
2020/12/23 13:05:15;;;;;;;70.50;43.35;;;;;;;;;;6228502;28;20049;-73
2020/12/23 13:08:16;;;;;;;68.22;43.17;;;;;;;;;;6226998;28;20045;-74
2020/12/23 13:11:19;;;;;;;71.28;44.88;;;;;;;;;;6230795;28;20204;-73
2020/12/23 13:14:20;;;;;;;68.55;44.22;;;;;;;;;;6223939;28;20152;-73
2020/12/23 13:17:22;;;;;;;64.65;43.40;;;;;;;;;;6229581;28;20057;-74
2020/12/23 13:20:23;;;;;;;74.60;44.08;;;;;;;;;;6224000;28;20124;-74
2020/12/23 13:23:24;;;;;;;70.22;43.33;;;;;;;;;;6220818;28;20048;-74
2020/12/23 13:26:25;;;;;;;66.15;43.17;;;;;;;;;;6247383;28;20403;-74
2020/12/23 13:29:26;;;;;;;76.65;46.05;;;;;;;;;;6254471;28;20686;-73
2020/12/23 13:32:27;;;;;;;69.72;45.58;;;;;;;;;;6252803;28;20041;-74
2020/12/23 13:35:28;;;;;;;72.82;46.55;;;;;;;;;;6255670;28;20056;-74
2020/12/23 13:38:30;;;;;;;70.88;45.92;;;;;;;;;;5902646;28;10000476;-75
2020/12/23 13:41:31;;;;;;;73.88;46.05;;;;;;;;;;6256017;28;20091;-73
2020/12/23 13:44:32;;;;;;;71.22;45.42;;;;;;;;;;6250749;28;20136;-73
2020/12/23 13:47:34;;;;;;;68.43;44.78;;;;;;;;;;6255595;28;20056;-72
2020/12/23 13:50:37;;;;;;;72.60;45.58;;;;;;;;;;5552839;28;10000383;-71
2020/12/23 13:53:38;;;;;;;75.35;46.83;;;;;;;;;;6253549;28;20045;-71
2020/12/23 13:56:39;;;;;;;71.20;45.83;;;;;;;;;;6249347;28;20565;-71
2020/12/23 13:59:40;;;;;;;78.68;47.20;;;;;;;;;;6245267;28;20140;-74
2020/12/23 14:02:42;;;;;;;78.70;50.17;;;;;;;;;;6242643;28;20049;-74
2020/12/23 14:05:43;;;;;;;84.25;50.60;;;;;;;;;;6250649;28;20045;-72
2020/12/23 14:08:44;;;;;;;81.80;51.70;;;;;;;;;;6254055;28;20604;-73
2020/12/23 14:11:45;;;;;;;81.85;51.17;;;;;;;;;;6248388;28;20136;-73
2020/12/23 14:14:46;;;;;;;84.10;51.30;;;;;;;;;;6247807;28;20055;-73
2020/12/23 14:17:49;;;;;;;83.82;50.28;;;;;;;;;;6251741;28;20143;-73
2020/12/23 14:20:50;;;;;;;84.55;51.75;;;;;;;;;;6247128;28;20147;-74
2020/12/23 14:23:51;;;;;;;79.68;49.97;;;;;;;;;;6257082;28;20082;-73
2020/12/23 14:26:52;;;;;;;82.45;50.20;;;;;;;;;;6259702;28;20053;-74
2020/12/23 14:29:53;;;;;;;77.18;50.05;;;;;;;;;;6257769;28;20064;-74
2020/12/23 14:32:55;;;;;;;86.85;54.08;;;;;;;;;;6258099;28;20695;-74
2020/12/23 14:35:56;;;;;;;87.20;54.13;;;;;;;;;;6262365;28;20136;-74
2020/12/23 14:38:57;;;;;;;85.07;52.92;;;;;;;;;;6257774;28;20507;-74
2020/12/23 14:41:58;;;;;;;89.63;53.53;;;;;;;;;;6256820;28;20559;-74
2020/12/23 14:44:59;;;;;;;86.07;52.92;;;;;;;;;;6265256;28;20086;-73
2020/12/23 14:48:01;;;;;;;89.65;53.05;;;;;;;;;;6261136;28;20519;-73
2020/12/23 14:51:02;;;;;;;85.95;52.90;;;;;;;;;;6258620;28;20144;-74
2020/12/23 14:54:03;;;;;;;89.35;55.15;;;;;;;;;;6256525;28;20132;-74
2020/12/23 14:57:04;;;;;;;84.00;51.80;;;;;;;;;;6250588;28;20145;-74
2020/12/23 15:00:07;;;;;;;85.85;52.88;;;;;;;;;;6250581;28;20040;-73
2020/12/23 15:03:09;;;;;;;85.70;52.30;;;;;;;;;;6257980;28;20411;-73
2020/12/23 15:06:13;;;;;;;83.03;52.80;;;;;;;;;;6262566;28;20386;-74
2020/12/23 15:09:14;;;;;;;;;;;;;;;;;;6256852;28;20119;-74
2020/12/23 15:12:17;;;;;;;81.30;52.95;;;;;;;;;;6258301;28;19963;-74
2020/12/23 15:15:18;;;;;;;80.07;53.90;;;;;;;;;;6258527;28;20047;-74
2020/12/23 15:18:21;;;;;;;82.13;53.03;;;;;;;;;;6260321;28;20060;-74
2020/12/23 15:21:22;;;;;;;84.60;51.38;;;;;;;;;;6255507;28;20472;-73
2020/12/23 15:24:23;;;;;;;79.32;49.42;;;;;;;;;;6267478;28;20059;-73
2020/12/23 15:27:24;;;;;;;77.13;50.67;;;;;;;;;;6254801;28;20045;-74
2020/12/23 15:30:26;;;;;;;78.43;50.28;;;;;;;;;;6254791;28;20128;-74
2020/12/23 15:33:28;;;;;;;77.22;50.13;;;;;;;;;;6254398;28;20048;-74
2020/12/23 15:36:29;;;;;;;81.55;52.05;;;;;;;;;;6253716;28;20572;-74
2020/12/23 15:39:30;;;;;;;78.75;49.70;;;;;;;;;;6248203;28;20456;-74
2020/12/23 15:42:32;;;;;;;76.45;49.80;;;;;;;;;;6251334;28;20048;-74
2020/12/23 15:45:33;;;;;;;75.65;49.92;;;;;;;;;;6256165;28;20091;-74
2020/12/23 15:48:36;;;;;;;83.15;50.28;;;;;;;;;;6253532;28;20041;-74
2020/12/23 15:51:37;;;;;;;78.82;51.42;;;;;;;;;;6256092;28;20600;-74
2020/12/23 15:54:39;;;;;;;79.40;51.92;;;;;;;;;;6254406;28;20049;-74
2020/12/23 15:57:40;;;;;;;78.80;51.38;;;;;;;;;;6255347;28;20053;-74
2020/12/23 16:00:41;;;;;;;82.93;52.60;;;;;;;;;;6259417;28;20485;-73
2020/12/23 16:03:43;;;;;;;75.32;49.25;;;;;;;;;;6251082;28;20444;-74
2020/12/23 16:06:44;;;;;;;77.20;50.65;;;;;;;;;;6255053;28;20045;-74
2020/12/23 16:09:45;;;;;;;76.68;50.30;;;;;;;;;;6246290;28;20037;-74
2020/12/23 16:12:46;;;;;;;76.65;50.83;;;;;;;;;;6247960;28;20055;-74
2020/12/23 16:15:47;;;;;;;75.80;48.55;;;;;;;;;;6249731;28;20378;-74
2020/12/23 16:18:49;;;;;;;73.05;47.92;;;;;;;;;;6250949;28;20055;-74
2020/12/23 16:21:50;;;;;;;72.90;48.08;;;;;;;;;;6253183;28;20059;-74
2020/12/23 16:24:52;;;;;;;74.22;48.03;;;;;;;;;;6255778;28;20424;-73
2020/12/23 16:27:53;;;;;;;75.28;46.92;;;;;;;;;;6250953;28;20044;-74
2020/12/23 16:30:54;;;;;;;72.30;46.85;;;;;;;;;;6254140;28;20131;-74
2020/12/23 16:33:56;;;;;;;71.50;46.75;;;;;;;;;;6245087;28;20595;-74
2020/12/23 16:37:01;;;;;;;76.75;49.92;;;;;;;;;;6260212;28;20049;-74
2020/12/23 16:40:04;;;;;;;70.35;45.40;;;;;;;;;;6243771;28;20056;-74
2020/12/23 16:43:05;;;;;;;67.20;45.33;;;;;;;;;;6252989;28;20506;-74
2020/12/23 16:46:06;;;;;;;65.60;45.38;;;;;;;;;;6255506;28;20033;-74
2020/12/23 16:49:08;;;;;;;66.53;44.08;;;;;;;;;;6257129;28;20053;-74
2020/12/23 16:52:09;;;;;;;65.90;44.15;;;;;;;;;;6248317;28;20075;-74
2020/12/23 16:55:10;;;;;;;61.60;43.40;;;;;;;;;;6252913;28;20435;-74
2020/12/23 16:58:11;;;;;;;57.85;41.28;;;;;;;;;;6257418;28;20554;-74
2020/12/23 17:01:14;;;;;;;62.22;45.53;;;;;;;;;;6262503;28;20047;-74
2020/12/23 17:04:16;;;;;;;56.63;39.85;;;;;;;;;;6247109;28;20045;-74
2020/12/23 17:07:17;;;;;;;55.92;39.60;;;;;;;;;;6256939;28;20049;-74
2020/12/23 17:10:18;;;;;;;50.00;36.80;;;;;;;;;;6251783;28;20049;-74
2020/12/23 17:13:19;;;;;;;48.33;36.28;;;;;;;;;;6257868;28;20037;-74
2020/12/23 17:16:20;;;;;;;47.17;35.42;;;;;;;;;;6251692;28;20041;-74
2020/12/23 17:19:23;;;;;;;48.47;35.67;;;;;;;;;;6253188;28;20049;-73
2020/12/23 17:22:24;;;;;;;47.13;36.28;;;;;;;;;;6252813;28;20045;-72
2020/12/23 17:25:25;;;;;;;44.70;35.75;;;;;;;;;;6249419;28;20053;-73
2020/12/23 17:28:27;;;;;;;49.85;37.55;;;;;;;;;;6253026;28;20045;-74
2020/12/23 17:31:28;;;;;;;46.13;36.35;;;;;;;;;;6248226;28;20095;-73
2020/12/23 17:34:30;;;;;;;46.70;36.58;;;;;;;;;;6247391;28;20055;-73
2020/12/23 17:37:31;;;;;;;49.42;35.83;;;;;;;;;;6259266;28;20139;-74
2020/12/23 17:40:32;;;;;;;46.10;36.75;;;;;;;;;;6240338;28;20072;-74